首页
METAR-TAF:

METAR-TAF

机场 :

安纳巴, 阿尔及利亚

纬度: 36-50N, 经度: 007-49E, 海拔: 4米

当前天气观测

该预报发布于31分钟前的19:00 UTC
风速17节,风向东北
温度 14°C
湿度 82%
气压 1011 hPa
能見度: 8000
少量云层高于2300英尺
少量云层高于3000英尺, 积雨云.
多云层高于4000英尺

METAR: DABB 011900Z 05017KT 8000 FEW023 FEW030CB BKN040 14/11 Q1011

时间: 20:31 (19:31 UTC)

预报

该预报发布于8小时和31分钟前的11:00 UTC
预报有效从01日的 12点(UTC)到 02日的 12点(UTC)
风速12节,风向北转东北
能见度10公里或以上
少量云层高于2300英尺
散云层高于10000英尺
多云层高于20000英尺
短暂存在
从 01日的 12点(UTC)到 01日的 24点(UTC)
少量云层高于2600英尺, 塔状积云.
几率 40% :
短暂存在
从 01日的 12点(UTC)到 01日的 18点(UTC)
风速15节,风向东北,有时为25节阵风
能見度: 5000
少量云层高于2300英尺, 积雨云.
多云层高于3000英尺
雷暴, 小雨
成为
从 01日的 20点(UTC)到 01日的 22点(UTC)
风速8节,风向南转西南

TAF: DABB 011100Z 0112/0212 03012KT 9999 FEW023 SCT100 BKN200 TEMPO 0112/0124 FEW026TCU PROB40 TEMPO 0112/0118 04015G25KT 5000 -TSRA FEW023CB BKN030 BECMG 0120/0122 20008KT

超过4000个机场的气象观测和天气预报(METAR&TAF报告)。

可查询的气象台以黄色和红色小点在地图上表示。

将鼠标移到小点上方,可查看气象台名称。

然后点击查看天气观测和预报。

如需切换地图:点击带黑十字的绿色按钮放大地图;点击带横线的绿色按钮缩小地图;或者点击绿色箭头查看邻近地区的地图。


METAR-TAF: